createdAt,value
2023-02-28T00:23:45.995Z,45.23
2023-02-28T00:24:46.187Z,45.72
2023-02-28T00:25:46.381Z,45.40
2023-02-28T00:26:46.564Z,45.32
2023-02-28T00:27:46.763Z,45.80
2023-02-28T01:19:56.114Z,47.24
2023-02-28T01:20:56.308Z,47.05
2023-02-28T01:21:56.456Z,47.01
2023-02-28T01:22:56.656Z,47.20
2023-02-28T01:23:57.566Z,47.13
2023-02-28T01:24:57.011Z,47.00
2023-02-28T01:25:57.181Z,46.92
2023-02-28T01:26:57.386Z,46.82
2023-02-28T01:27:57.580Z,46.67
2023-02-28T01:28:57.776Z,46.70
2023-02-28T01:29:57.957Z,46.51
2023-02-28T01:30:58.230Z,46.33
2023-02-28T01:31:58.371Z,46.23
2023-02-28T01:32:58.552Z,46.13
2023-02-28T01:33:58.727Z,46.04
2023-02-28T01:34:58.924Z,45.98
2023-02-28T01:35:59.233Z,45.96
2023-02-28T01:36:59.304Z,46.01
2023-02-28T01:38:09.477Z,46.25
2023-02-28T01:39:00.622Z,46.18
2023-02-28T01:39:59.746Z,46.03
2023-02-28T01:40:59.866Z,45.99
2023-02-28T01:43:00.126Z,46.23
2023-02-28T01:44:00.252Z,46.27
2023-02-28T01:45:00.377Z,46.35
2023-02-28T01:46:00.574Z,46.31
2023-02-28T02:16:06.035Z,47.28
2023-02-28T02:17:06.204Z,47.12
2023-02-28T02:18:06.398Z,47.05
2023-02-28T02:19:06.596Z,46.95
2023-02-28T02:20:06.769Z,46.80
2023-02-28T02:21:06.974Z,46.71
2023-02-28T02:22:07.168Z,46.73
2023-02-28T02:23:07.354Z,46.79
2023-02-28T02:24:07.531Z,46.78
2023-02-28T02:25:07.752Z,46.88
2023-02-28T02:26:07.921Z,46.74
2023-02-28T02:27:08.119Z,46.73
2023-02-28T02:28:08.305Z,46.84
2023-02-28T02:29:08.507Z,47.20
2023-02-28T02:30:08.686Z,47.04
2023-02-28T02:31:08.896Z,47.50
2023-02-28T02:32:09.127Z,47.06
2023-02-28T02:33:09.264Z,46.96
2023-02-28T02:34:09.473Z,46.80
2023-02-28T02:35:09.668Z,46.71
2023-02-28T02:36:09.859Z,46.66
2023-02-28T02:37:10.052Z,46.78
2023-02-28T02:38:10.244Z,46.56
2023-02-28T02:39:10.438Z,46.59
2023-02-28T02:40:10.619Z,46.51
2023-02-28T02:41:10.812Z,46.48
2023-02-28T02:42:11.008Z,46.63
2023-02-28T02:43:11.189Z,46.63
2023-02-28T02:44:11.491Z,46.48
2023-02-28T02:45:11.563Z,46.36
2023-02-28T02:46:11.748Z,46.45
2023-02-28T02:47:11.927Z,46.43
2023-02-28T02:48:12.114Z,46.46
2023-02-28T02:49:12.288Z,46.53
2023-02-28T02:50:12.470Z,46.46
2023-02-28T02:51:12.638Z,46.48
2023-02-28T02:52:12.859Z,46.41
2023-02-28T02:53:13.009Z,46.33
2023-02-28T02:54:13.206Z,46.25
2023-02-28T02:55:13.342Z,46.41
2023-02-28T02:56:13.495Z,46.55
2023-02-28T02:57:13.692Z,46.43
2023-02-28T02:58:13.879Z,46.35
2023-02-28T02:59:14.060Z,46.66
2023-02-28T03:00:14.224Z,46.69
2023-02-28T03:01:14.520Z,46.72
2023-02-28T03:02:14.578Z,46.66
2023-02-28T03:03:14.893Z,46.66
2023-02-28T03:04:15.010Z,46.54
2023-02-28T03:05:15.121Z,46.44
2023-02-28T03:06:15.291Z,46.33
2023-02-28T03:07:15.473Z,46.43
2023-02-28T03:08:15.658Z,46.61
2023-02-28T03:09:15.833Z,46.54
2023-02-28T03:10:15.977Z,46.50
2023-02-28T03:11:16.115Z,47.35
2023-02-28T03:12:17.069Z,47.10
2023-02-28T03:13:16.431Z,47.17
2023-02-28T03:14:16.604Z,47.19
2023-02-28T03:15:16.728Z,47.23
2023-02-28T03:16:16.906Z,47.20
2023-02-28T03:17:17.037Z,47.26
2023-02-28T03:18:17.572Z,47.19
2023-02-28T03:19:17.377Z,47.05
2023-02-28T03:20:17.504Z,47.00
2023-02-28T03:21:17.632Z,46.91
2023-02-28T03:22:18.560Z,46.82
2023-02-28T03:23:17.893Z,46.73
2023-02-28T03:24:18.020Z,47.04
2023-02-28T03:25:18.159Z,47.10
2023-02-28T03:26:18.316Z,47.06
2023-02-28T03:27:18.485Z,47.01
2023-02-28T03:28:18.588Z,47.22
2023-02-28T03:29:18.791Z,47.03
2023-02-28T03:30:19.007Z,46.97
2023-02-28T03:31:19.315Z,46.87
2023-02-28T03:32:19.488Z,47.58
2023-02-28T03:33:19.697Z,47.41
2023-02-28T03:34:19.912Z,47.63
2023-02-28T03:35:20.138Z,48.39
2023-02-28T03:36:20.280Z,48.41
2023-02-28T03:37:20.506Z,48.81
2023-02-28T03:38:20.565Z,48.59
2023-02-28T03:39:20.732Z,48.52
2023-02-28T03:40:20.841Z,48.26
2023-02-28T03:41:21.067Z,48.48
2023-02-28T03:42:21.272Z,48.90
2023-02-28T03:43:21.429Z,49.67
2023-02-28T03:47:21.988Z,48.70
2023-02-28T04:09:26.579Z,47.87
2023-02-28T04:53:33.374Z,49.60
2023-02-28T04:54:33.576Z,49.65
2023-02-28T04:55:33.754Z,49.79
2023-02-28T04:56:33.941Z,49.58
2023-02-28T04:58:35.084Z,49.71
2023-02-28T05:46:43.340Z,50.84
2023-02-28T05:47:43.540Z,50.88
2023-02-28T06:35:53.662Z,53.61
2023-02-28T06:38:53.431Z,53.79
2023-02-28T06:39:53.652Z,53.55
2023-02-28T06:40:53.806Z,53.35
2023-02-28T06:41:56.102Z,53.28
2023-02-28T06:42:54.166Z,53.06
2023-02-28T06:43:54.332Z,53.11
2023-02-28T06:44:54.507Z,53.18
2023-02-28T06:45:54.710Z,52.71
2023-02-28T06:46:54.884Z,52.93
2023-02-28T06:47:55.077Z,52.85
2023-02-28T06:48:55.252Z,52.82
2023-02-28T06:49:56.014Z,52.35
2023-02-28T06:50:55.659Z,52.13
2023-02-28T06:51:55.851Z,52.12
2023-02-28T06:52:56.081Z,52.08
2023-02-28T06:53:56.308Z,51.97
2023-02-28T06:54:56.502Z,52.19
2023-02-28T06:55:56.698Z,52.09
2023-02-28T06:56:56.867Z,52.22
2023-02-28T06:57:57.060Z,51.92
2023-02-28T06:58:57.285Z,51.94
2023-02-28T06:59:57.510Z,51.92
2023-02-28T07:00:57.685Z,51.95
2023-02-28T07:01:57.979Z,51.84
2023-02-28T07:02:58.048Z,52.43
2023-02-28T07:03:58.259Z,51.99
2023-02-28T07:04:58.540Z,51.99
2023-02-28T07:05:58.677Z,52.07
2023-02-28T07:06:58.879Z,52.01
2023-02-28T07:07:59.109Z,51.63
2023-02-28T07:08:59.321Z,51.91
2023-02-28T07:09:59.510Z,52.10
2023-02-28T07:10:59.680Z,52.37
2023-02-28T07:11:59.869Z,52.18
2023-02-28T07:13:00.049Z,52.14
2023-02-28T07:14:00.281Z,51.82
2023-02-28T07:15:00.440Z,52.24
2023-02-28T07:16:00.705Z,51.90
2023-02-28T07:17:00.866Z,53.16
2023-02-28T07:18:01.099Z,52.69
2023-02-28T07:19:01.321Z,52.92
2023-02-28T07:20:01.545Z,52.36
2023-02-28T07:21:01.754Z,52.31
2023-02-28T07:22:01.945Z,51.95
2023-02-28T07:23:02.149Z,51.71
2023-02-28T07:24:02.352Z,51.45
2023-02-28T07:25:02.581Z,51.25
2023-02-28T07:26:02.791Z,51.02
2023-02-28T07:27:03.069Z,51.05
2023-02-28T07:28:04.101Z,51.17
2023-02-28T07:29:03.390Z,50.85
2023-02-28T07:30:03.737Z,50.65
2023-02-28T07:31:04.624Z,50.40
2023-02-28T07:32:03.990Z,50.27
2023-02-28T07:33:04.149Z,50.05
2023-02-28T07:34:04.334Z,49.87
2023-02-28T07:35:04.520Z,49.58
2023-02-28T07:36:04.694Z,49.40
2023-02-28T07:37:04.913Z,49.19
2023-02-28T07:38:05.075Z,49.07
2023-02-28T07:39:05.235Z,49.05
2023-02-28T07:40:05.403Z,48.92
2023-02-28T07:41:05.588Z,48.95
2023-02-28T07:42:05.771Z,48.89
2023-02-28T07:44:06.141Z,48.71
2023-02-28T08:23:14.105Z,47.12
2023-02-28T08:24:13.423Z,46.93
2023-02-28T08:25:13.567Z,46.68
2023-02-28T08:26:13.713Z,46.32
2023-02-28T08:27:13.851Z,45.81
2023-02-28T08:28:14.005Z,45.64
2023-02-28T08:29:14.249Z,45.60
2023-02-28T08:30:14.502Z,45.63
2023-02-28T08:31:14.694Z,45.45
2023-02-28T08:32:28.889Z,45.27
2023-02-28T08:33:15.912Z,45.38
2023-02-28T08:34:14.986Z,45.81
2023-02-28T08:35:15.136Z,45.58
2023-02-28T08:36:15.280Z,45.52
2023-02-28T08:37:15.379Z,45.56
2023-02-28T08:38:15.498Z,45.34
2023-02-28T08:39:15.627Z,45.15
2023-02-28T08:40:15.746Z,45.14
2023-02-28T08:41:15.856Z,44.96
2023-02-28T09:32:23.375Z,41.40
2023-02-28T09:33:24.038Z,41.27
2023-02-28T09:34:23.700Z,41.58
2023-02-28T09:35:23.749Z,41.76
2023-02-28T09:36:28.912Z,41.34
2023-02-28T09:37:24.981Z,41.04
2023-02-28T09:38:24.087Z,41.37
2023-02-28T09:39:24.190Z,41.56
2023-02-28T09:40:24.286Z,41.47
2023-02-28T09:41:24.389Z,41.03
2023-02-28T09:42:24.502Z,41.71
2023-02-28T09:43:24.595Z,41.49
2023-02-28T09:44:24.690Z,41.51
2023-02-28T09:45:24.787Z,41.51
2023-02-28T10:51:33.394Z,40.42
2023-02-28T10:52:33.549Z,40.82
2023-02-28T10:53:38.494Z,40.37
2023-02-28T10:54:33.794Z,40.03
2023-02-28T10:55:33.865Z,40.05
2023-02-28T10:56:34.500Z,40.21
2023-02-28T10:57:34.018Z,41.02
2023-02-28T10:58:34.114Z,40.21
2023-02-28T10:59:34.188Z,40.16
2023-02-28T11:00:34.287Z,40.62
2023-02-28T11:01:34.792Z,40.32
2023-02-28T11:03:34.523Z,39.93
2023-02-28T11:04:34.693Z,40.17
2023-02-28T11:05:34.723Z,40.58
2023-02-28T11:06:34.791Z,40.30
2023-02-28T11:07:50.593Z,40.31
2023-02-28T11:08:35.947Z,40.09
2023-02-28T11:09:35.043Z,40.46
2023-02-28T11:10:35.115Z,40.28
2023-02-28T11:11:35.197Z,39.92
2023-02-28T11:12:37.874Z,39.90
2023-02-28T11:13:36.358Z,39.91
2023-02-28T11:14:35.451Z,40.41
2023-02-28T11:15:35.502Z,40.15
2023-02-28T11:16:35.588Z,39.92
2023-02-28T11:17:35.654Z,40.43
2023-02-28T11:18:35.724Z,39.75
2023-02-28T11:19:35.801Z,39.97
2023-02-28T11:20:35.872Z,39.95
2023-02-28T11:21:35.935Z,40.50
2023-02-28T11:22:36.002Z,39.98
2023-02-28T11:23:37.892Z,39.89
2023-02-28T11:24:36.147Z,40.68
2023-02-28T11:25:36.226Z,39.87
2023-02-28T11:26:36.296Z,39.75
2023-02-28T11:27:36.364Z,39.92
2023-02-28T11:28:36.444Z,39.31
2023-02-28T11:29:36.530Z,39.81
2023-02-28T11:30:36.621Z,40.11
2023-02-28T11:31:36.782Z,39.77
2023-02-28T11:32:36.982Z,39.60
2023-02-28T11:33:36.985Z,40.33
2023-02-28T11:34:37.059Z,39.69
2023-02-28T11:35:37.128Z,39.67
2023-02-28T11:36:37.208Z,39.79
2023-02-28T11:37:37.272Z,39.63
2023-02-28T11:38:37.361Z,39.46
2023-02-28T11:39:37.475Z,38.93
2023-02-28T11:40:37.488Z,38.75
2023-02-28T11:41:39.019Z,39.04
2023-02-28T11:42:37.635Z,38.50
2023-02-28T11:43:37.707Z,38.93
2023-02-28T11:44:37.776Z,39.24
2023-02-28T12:16:39.866Z,36.09
2023-02-28T12:17:39.857Z,36.04
2023-02-28T12:18:39.948Z,36.34
2023-02-28T12:19:39.951Z,36.50
2023-02-28T12:20:39.987Z,36.27
2023-02-28T12:21:40.039Z,36.32
2023-02-28T12:22:40.088Z,35.86
2023-02-28T13:34:43.364Z,30.86
2023-02-28T13:36:43.480Z,31.31
2023-02-28T13:41:43.995Z,30.52
2023-02-28T13:42:44.006Z,30.71
2023-02-28T13:43:44.073Z,30.78
2023-02-28T13:44:45.088Z,30.80
2023-02-28T13:45:44.093Z,30.72
2023-02-28T13:46:44.102Z,30.70
2023-02-28T13:47:44.115Z,30.68
2023-02-28T13:48:44.145Z,30.62
2023-02-28T13:49:44.173Z,31.21
2023-02-28T13:50:44.207Z,31.25
2023-02-28T13:51:44.222Z,31.09
2023-02-28T13:52:48.667Z,30.96
2023-02-28T13:53:46.117Z,31.11
2023-02-28T13:54:44.260Z,30.72
2023-02-28T13:55:44.268Z,30.74
2023-02-28T13:56:44.273Z,30.78
2023-02-28T13:57:44.277Z,31.10
2023-02-28T13:58:44.298Z,31.25
2023-02-28T13:59:44.277Z,31.49
2023-02-28T14:00:44.288Z,31.27
2023-02-28T14:01:44.421Z,31.62
2023-02-28T14:02:44.315Z,31.16
2023-02-28T14:03:44.315Z,31.11
2023-02-28T14:04:44.358Z,30.97
2023-02-28T14:05:44.303Z,31.46
2023-02-28T14:06:44.289Z,31.54
2023-02-28T14:07:44.303Z,31.43
2023-02-28T14:08:44.289Z,31.54
2023-02-28T14:09:44.315Z,31.37
2023-02-28T14:10:44.300Z,31.68
2023-02-28T14:11:44.296Z,31.29
2023-02-28T14:12:44.296Z,31.32
2023-02-28T14:13:44.298Z,31.38
2023-02-28T14:14:44.311Z,31.10
2023-02-28T14:15:44.439Z,31.07
2023-02-28T14:16:44.385Z,31.39
2023-02-28T14:17:44.405Z,31.66
2023-02-28T14:18:44.391Z,31.50
2023-02-28T14:19:44.411Z,31.02
2023-02-28T14:20:44.436Z,31.00
2023-02-28T14:21:44.445Z,31.08
2023-02-28T14:22:44.503Z,31.16
2023-02-28T14:23:44.468Z,31.45
2023-02-28T14:24:44.496Z,31.01
2023-02-28T14:25:45.550Z,31.30
2023-02-28T14:26:44.516Z,31.69
2023-02-28T14:27:44.535Z,31.66
2023-02-28T14:28:44.560Z,31.36
2023-02-28T14:29:44.575Z,31.20
2023-02-28T14:30:44.591Z,31.01
2023-02-28T14:31:44.698Z,30.83
2023-02-28T14:32:44.597Z,30.65
2023-02-28T14:33:44.609Z,30.74
2023-02-28T14:34:44.595Z,30.51
2023-02-28T14:35:44.642Z,30.85
2023-02-28T14:36:44.617Z,30.84
2023-02-28T14:37:44.638Z,30.55
2023-02-28T14:38:44.621Z,30.68
2023-02-28T14:39:44.633Z,30.46
2023-02-28T14:40:44.620Z,30.45
2023-02-28T14:41:44.636Z,30.66
2023-02-28T14:42:44.617Z,30.11
2023-02-28T14:43:44.601Z,30.30
2023-02-28T14:44:44.636Z,30.07
2023-02-28T14:45:44.663Z,29.78
2023-02-28T14:46:44.801Z,29.77
2023-02-28T14:47:44.777Z,30.05
2023-02-28T14:48:44.923Z,29.99
2023-02-28T14:49:44.851Z,29.77
2023-02-28T14:50:44.914Z,29.92
2023-02-28T14:51:44.941Z,29.77
2023-02-28T14:52:44.981Z,29.42
2023-02-28T14:53:45.039Z,29.37
2023-02-28T14:54:45.087Z,29.41
2023-02-28T14:55:45.147Z,29.61
2023-02-28T14:56:45.153Z,29.95
2023-02-28T14:57:45.175Z,29.65
2023-02-28T14:58:45.190Z,29.75
2023-02-28T14:59:45.245Z,29.75
2023-02-28T15:00:45.270Z,29.64
2023-02-28T15:01:45.356Z,29.84
2023-02-28T15:02:45.340Z,29.76
2023-02-28T15:03:45.359Z,30.04
2023-02-28T15:04:45.489Z,30.20
2023-02-28T15:05:45.445Z,30.39
2023-02-28T15:06:45.497Z,30.39
2023-02-28T15:07:45.558Z,30.46
2023-02-28T15:08:45.594Z,30.57
2023-02-28T15:09:45.641Z,30.82
2023-02-28T15:10:45.715Z,31.33
2023-02-28T15:11:45.775Z,31.11
2023-02-28T15:12:45.826Z,31.55
2023-02-28T15:13:45.895Z,31.98
2023-02-28T15:14:45.964Z,32.19
2023-02-28T15:16:00.909Z,32.12
2023-02-28T15:16:47.201Z,31.94
2023-02-28T15:17:46.201Z,31.93
2023-02-28T15:18:46.219Z,32.32
2023-02-28T15:19:46.269Z,32.38
2023-02-28T15:20:46.250Z,32.29
2023-02-28T15:21:46.259Z,32.56
2023-02-28T15:22:46.267Z,32.46
2023-02-28T15:23:46.281Z,32.44
2023-02-28T15:24:46.311Z,32.44
2023-02-28T15:25:46.401Z,32.48
2023-02-28T15:26:46.346Z,32.83
2023-02-28T15:27:46.403Z,33.03
2023-02-28T15:28:46.506Z,32.94
2023-02-28T15:29:46.574Z,33.14
2023-02-28T15:30:46.652Z,33.22
2023-02-28T15:31:57.034Z,33.54
2023-02-28T15:33:46.804Z,33.32
2023-02-28T15:34:46.884Z,33.20
2023-02-28T15:35:46.993Z,32.97
2023-02-28T15:36:47.033Z,33.33
2023-02-28T15:37:47.149Z,33.25
2023-02-28T15:38:47.197Z,33.33
2023-02-28T15:39:47.296Z,34.20
2023-02-28T15:40:47.391Z,33.82
2023-02-28T15:41:47.504Z,33.88
2023-02-28T16:39:53.432Z,38.66
2023-02-28T16:40:53.552Z,38.38
2023-02-28T16:41:53.690Z,38.05
2023-02-28T16:42:53.794Z,38.23
2023-02-28T16:43:53.869Z,38.08
2023-02-28T16:44:53.976Z,39.05
2023-02-28T16:45:54.151Z,38.76
2023-02-28T16:46:54.245Z,38.73
2023-02-28T16:47:54.374Z,38.57
2023-02-28T16:48:54.472Z,38.66
2023-02-28T16:49:54.587Z,38.95
2023-02-28T16:50:54.710Z,38.82
2023-02-28T16:51:54.816Z,39.25
2023-02-28T16:52:54.941Z,38.94
2023-02-28T16:53:55.070Z,39.53
2023-02-28T16:54:55.185Z,39.87
2023-02-28T16:55:55.309Z,39.39
2023-02-28T17:10:56.897Z,43.10
2023-02-28T17:11:56.987Z,43.06
2023-02-28T17:13:06.115Z,42.82
2023-02-28T17:13:58.135Z,43.04
2023-02-28T17:14:57.190Z,42.89
2023-02-28T17:15:57.346Z,42.84
2023-02-28T17:16:57.343Z,42.74
2023-02-28T17:17:57.385Z,42.48
2023-02-28T17:18:57.485Z,42.79
2023-02-28T17:19:57.498Z,43.04
2023-02-28T17:20:57.567Z,42.74
2023-02-28T17:21:57.671Z,43.36
2023-02-28T17:22:57.703Z,42.60
2023-02-28T17:23:57.767Z,42.64
2023-02-28T17:24:57.828Z,42.72
2023-02-28T17:25:58.348Z,43.04
2023-02-28T17:26:58.063Z,42.87
2023-02-28T17:27:58.027Z,43.34
2023-02-28T17:28:58.128Z,43.28
2023-02-28T17:29:58.167Z,42.91
2023-02-28T17:30:58.272Z,42.81
2023-02-28T17:32:00.795Z,43.12
2023-02-28T17:32:58.369Z,43.63
2023-02-28T17:33:58.447Z,42.94
2023-02-28T17:34:58.504Z,42.64
2023-02-28T17:35:58.596Z,43.47
2023-02-28T17:36:58.639Z,43.25
2023-02-28T17:37:58.771Z,43.98
2023-02-28T17:38:58.797Z,43.84
2023-02-28T17:39:59.700Z,43.94
2023-02-28T17:40:58.928Z,43.98
2023-02-28T17:41:59.008Z,44.32
2023-02-28T17:42:59.095Z,44.61
2023-02-28T17:43:59.155Z,45.00
2023-02-28T17:44:59.243Z,45.34
2023-02-28T17:45:59.444Z,45.19
2023-02-28T17:46:59.403Z,44.56
2023-02-28T17:47:59.491Z,45.60
2023-02-28T17:48:59.581Z,45.39
2023-02-28T17:49:59.745Z,46.02
2023-02-28T17:50:59.763Z,45.76
2023-02-28T18:16:03.406Z,46.65
2023-02-28T18:17:03.533Z,46.99
2023-02-28T18:18:03.690Z,46.74
2023-02-28T18:19:03.853Z,46.46
2023-02-28T18:20:04.000Z,46.70
2023-02-28T18:21:04.156Z,46.57
2023-02-28T18:22:04.317Z,46.11
2023-02-28T18:23:04.457Z,47.29
2023-02-28T18:24:04.578Z,48.03
2023-02-28T18:25:04.759Z,47.98
2023-02-28T18:37:06.094Z,48.72
2023-02-28T18:38:06.222Z,48.72
2023-02-28T18:39:06.383Z,49.07
2023-02-28T18:40:06.455Z,49.81
2023-02-28T18:41:06.605Z,48.86
2023-02-28T18:42:06.706Z,48.46
2023-02-28T18:43:06.836Z,48.57
2023-02-28T18:44:18.775Z,50.17
2023-02-28T18:45:08.078Z,50.14
2023-02-28T18:46:07.235Z,50.12
2023-02-28T18:47:07.308Z,50.15
2023-02-28T18:48:07.419Z,50.16
2023-02-28T18:49:07.541Z,49.18
2023-02-28T18:50:07.680Z,49.37
2023-02-28T18:51:07.783Z,49.75
2023-02-28T18:52:07.884Z,49.01
2023-02-28T18:53:08.010Z,48.96
2023-02-28T18:54:08.102Z,48.32
2023-02-28T18:55:08.213Z,48.39
2023-02-28T18:56:08.312Z,48.60
2023-02-28T18:57:08.410Z,48.67
2023-02-28T18:58:08.509Z,48.30
2023-02-28T18:59:08.613Z,48.16
2023-02-28T19:00:09.872Z,48.81
2023-02-28T19:01:08.892Z,48.44
2023-02-28T19:02:08.985Z,48.08
2023-02-28T19:03:09.127Z,47.86
2023-02-28T19:04:09.287Z,48.69
2023-02-28T19:05:09.702Z,49.14
2023-02-28T19:06:09.565Z,48.28
2023-02-28T19:07:09.704Z,48.70
2023-02-28T19:08:09.859Z,48.09
2023-02-28T19:09:10.001Z,47.87
2023-02-28T19:10:10.131Z,47.34
2023-02-28T19:11:10.269Z,47.27
2023-02-28T19:12:10.402Z,46.89
2023-02-28T19:13:10.528Z,46.98
2023-02-28T19:14:10.663Z,46.91
2023-02-28T19:15:10.799Z,46.52
2023-02-28T19:16:10.972Z,47.13
2023-02-28T19:17:11.065Z,47.11
2023-02-28T19:18:11.207Z,46.79
2023-02-28T19:19:11.356Z,47.00
2023-02-28T19:20:11.503Z,46.62
2023-02-28T19:21:11.622Z,46.93
2023-02-28T19:22:11.745Z,46.97
2023-02-28T19:23:11.874Z,47.31
2023-02-28T19:24:12.017Z,46.87
2023-02-28T19:25:12.142Z,47.30
2023-02-28T19:26:12.285Z,46.98
2023-02-28T19:28:12.595Z,46.48
2023-02-28T19:29:12.721Z,46.25
2023-02-28T19:30:12.882Z,46.82
2023-02-28T19:31:13.064Z,46.91
2023-02-28T19:32:13.816Z,46.85
2023-02-28T19:33:13.279Z,46.46
2023-02-28T19:34:13.413Z,46.22
2023-02-28T19:35:13.532Z,46.45
2023-02-28T19:36:13.661Z,46.36
2023-02-28T19:37:13.779Z,46.03
2023-02-28T19:38:13.889Z,45.88
2023-02-28T20:14:19.013Z,45.93
2023-02-28T20:15:19.155Z,46.28
2023-02-28T20:16:19.324Z,46.17
2023-02-28T20:17:19.428Z,46.00
2023-02-28T20:46:23.550Z,46.19
2023-02-28T20:47:23.590Z,46.25
2023-02-28T20:48:23.721Z,46.41
2023-02-28T20:49:23.861Z,46.43
2023-02-28T20:50:23.998Z,46.53
2023-02-28T20:51:24.098Z,46.31
2023-02-28T20:52:24.219Z,46.32
2023-02-28T20:53:24.321Z,46.43
2023-02-28T20:54:24.498Z,46.64
2023-02-28T20:55:24.702Z,46.54
2023-02-28T20:56:24.794Z,46.61
2023-02-28T20:57:24.897Z,46.64
2023-02-28T20:58:25.009Z,46.72
2023-02-28T20:59:25.158Z,46.73
2023-02-28T21:00:25.278Z,46.54
2023-02-28T21:01:25.421Z,46.70
2023-02-28T21:02:25.577Z,46.59
2023-02-28T21:03:25.655Z,46.54
2023-02-28T21:04:25.797Z,46.71
2023-02-28T21:05:25.917Z,46.68
2023-02-28T21:06:26.035Z,46.91
2023-02-28T21:07:26.170Z,46.57
2023-02-28T21:08:26.286Z,46.65
2023-02-28T21:09:26.409Z,46.96
2023-02-28T21:10:26.531Z,46.94
2023-02-28T21:11:26.657Z,46.97
2023-02-28T21:12:26.767Z,46.84
2023-02-28T21:13:26.878Z,46.82
2023-02-28T22:11:33.402Z,48.24
2023-02-28T22:12:34.223Z,48.31
2023-02-28T22:13:33.590Z,48.14
2023-02-28T22:14:33.694Z,48.01
2023-02-28T22:15:33.801Z,48.31
2023-02-28T22:16:49.497Z,48.45
2023-02-28T22:17:34.989Z,48.48
2023-02-28T22:18:34.082Z,48.50
2023-02-28T22:19:34.184Z,48.36
2023-02-28T22:20:34.277Z,48.16
2023-02-28T22:21:34.380Z,48.09
2023-02-28T22:22:34.553Z,47.97
2023-02-28T22:23:34.648Z,48.02
2023-02-28T22:24:34.747Z,47.87
2023-02-28T22:25:34.832Z,47.94
2023-02-28T22:26:34.921Z,47.83
2023-02-28T22:27:35.026Z,48.49
2023-02-28T22:28:35.125Z,48.16
2023-02-28T22:29:35.227Z,48.08
2023-02-28T22:30:35.314Z,48.84
2023-02-28T22:31:35.499Z,48.27
2023-02-28T22:32:35.515Z,48.29
2023-02-28T23:36:43.439Z,47.79
2023-02-28T23:37:43.613Z,47.77
2023-02-28T23:38:43.819Z,47.83
2023-02-28T23:39:44.012Z,47.77
2023-02-28T23:40:44.220Z,47.71
2023-02-28T23:41:44.422Z,47.67
2023-02-28T23:42:44.632Z,47.74
2023-02-28T23:43:44.854Z,47.69
2023-02-28T23:44:45.038Z,47.70
2023-02-28T23:45:45.274Z,47.68
2023-02-28T23:46:45.458Z,47.70
2023-02-28T23:47:45.659Z,47.66
2023-02-28T23:48:45.865Z,47.65
2023-02-28T23:49:46.087Z,47.66
2023-02-28T23:50:46.276Z,47.67
2023-02-28T23:51:46.487Z,47.72
2023-02-28T23:52:46.682Z,47.61
2023-02-28T23:53:46.890Z,47.51
2023-02-28T23:54:47.075Z,47.53
2023-02-28T23:55:47.172Z,47.50
2023-02-28T23:56:47.325Z,47.61
2023-02-28T23:57:47.476Z,47.62
2023-02-28T23:58:47.595Z,47.62
2023-02-28T23:59:47.722Z,47.85
